sensor_id;sensor_type;location;lat;lon;timestamp;P1;durP1;ratioP1;P2;durP2;ratioP2
52940;SDS011;62001;53.366;6.636;2023-07-13T00:03:03;14.77;;;4.30;;
52940;SDS011;62001;53.366;6.636;2023-07-13T00:05:29;20.55;;;4.38;;
52940;SDS011;62001;53.366;6.636;2023-07-13T00:07:56;16.98;;;4.15;;
52940;SDS011;62001;53.366;6.636;2023-07-13T00:10:22;14.43;;;4.22;;
52940;SDS011;62001;53.366;6.636;2023-07-13T00:12:48;17.05;;;4.65;;
52940;SDS011;62001;53.366;6.636;2023-07-13T00:15:19;16.08;;;4.15;;
52940;SDS011;62001;53.366;6.636;2023-07-13T00:17:51;16.90;;;4.50;;
52940;SDS011;62001;53.366;6.636;2023-07-13T00:20:19;17.77;;;4.70;;
52940;SDS011;62001;53.366;6.636;2023-07-13T00:22:50;18.80;;;4.68;;
52940;SDS011;62001;53.366;6.636;2023-07-13T00:25:20;22.45;;;4.57;;
52940;SDS011;62001;53.366;6.636;2023-07-13T00:27:49;18.98;;;4.90;;
52940;SDS011;62001;53.366;6.636;2023-07-13T00:30:16;9.10;;;3.42;;
52940;SDS011;62001;53.366;6.636;2023-07-13T00:32:42;18.50;;;4.80;;
52940;SDS011;62001;53.366;6.636;2023-07-13T00:35:08;20.75;;;4.95;;
52940;SDS011;62001;53.366;6.636;2023-07-13T00:37:34;19.65;;;4.82;;
52940;SDS011;62001;53.366;6.636;2023-07-13T00:40:04;21.92;;;4.57;;
52940;SDS011;62001;53.366;6.636;2023-07-13T00:45:01;16.50;;;4.28;;
52940;SDS011;62001;53.366;6.636;2023-07-13T00:47:39;19.98;;;4.32;;
52940;SDS011;62001;53.366;6.636;2023-07-13T00:50:07;19.88;;;4.30;;
52940;SDS011;62001;53.366;6.636;2023-07-13T00:52:36;19.30;;;4.72;;
52940;SDS011;62001;53.366;6.636;2023-07-13T00:55:08;24.00;;;5.10;;
52940;SDS011;62001;53.366;6.636;2023-07-13T00:57:36;18.35;;;4.28;;
52940;SDS011;62001;53.366;6.636;2023-07-13T01:00:03;15.38;;;4.20;;
52940;SDS011;62001;53.366;6.636;2023-07-13T01:02:35;12.73;;;4.20;;
52940;SDS011;62001;53.366;6.636;2023-07-13T01:05:15;18.40;;;4.60;;
52940;SDS011;62001;53.366;6.636;2023-07-13T01:10:11;17.98;;;4.35;;
52940;SDS011;62001;53.366;6.636;2023-07-13T01:12:37;17.88;;;4.45;;
52940;SDS011;62001;53.366;6.636;2023-07-13T01:15:03;20.45;;;5.03;;
52940;SDS011;62001;53.366;6.636;2023-07-13T01:17:31;16.30;;;4.15;;
52940;SDS011;62001;53.366;6.636;2023-07-13T01:19:59;15.45;;;4.40;;
52940;SDS011;62001;53.366;6.636;2023-07-13T01:22:25;19.90;;;4.82;;
52940;SDS011;62001;53.366;6.636;2023-07-13T01:24:52;15.68;;;4.28;;
52940;SDS011;62001;53.366;6.636;2023-07-13T01:27:23;14.23;;;4.13;;
52940;SDS011;62001;53.366;6.636;2023-07-13T01:29:51;15.57;;;4.47;;
52940;SDS011;62001;53.366;6.636;2023-07-13T01:32:20;16.98;;;4.28;;
52940;SDS011;62001;53.366;6.636;2023-07-13T01:34:49;18.40;;;4.18;;
52940;SDS011;62001;53.366;6.636;2023-07-13T01:39:45;19.27;;;4.13;;
52940;SDS011;62001;53.366;6.636;2023-07-13T01:42:12;15.50;;;4.05;;
52940;SDS011;62001;53.366;6.636;2023-07-13T01:44:38;17.50;;;4.05;;
52940;SDS011;62001;53.366;6.636;2023-07-13T01:47:04;15.45;;;4.13;;
52940;SDS011;62001;53.366;6.636;2023-07-13T01:49:31;16.90;;;4.22;;
52940;SDS011;62001;53.366;6.636;2023-07-13T01:51:57;14.13;;;3.95;;
52940;SDS011;62001;53.366;6.636;2023-07-13T01:54:23;16.40;;;3.83;;
52940;SDS011;62001;53.366;6.636;2023-07-13T01:56:48;12.70;;;4.07;;
52940;SDS011;62001;53.366;6.636;2023-07-13T01:59:14;15.65;;;4.00;;
52940;SDS011;62001;53.366;6.636;2023-07-13T02:01:40;13.88;;;4.00;;
52940;SDS011;62001;53.366;6.636;2023-07-13T02:04:06;11.75;;;3.75;;
52940;SDS011;62001;53.366;6.636;2023-07-13T02:06:32;21.02;;;4.22;;
52940;SDS011;62001;53.366;6.636;2023-07-13T02:08:58;14.73;;;4.03;;
52940;SDS011;62001;53.366;6.636;2023-07-13T02:11:25;13.38;;;4.07;;
52940;SDS011;62001;53.366;6.636;2023-07-13T02:13:58;13.93;;;3.80;;
52940;SDS011;62001;53.366;6.636;2023-07-13T02:16:27;14.35;;;4.70;;
52940;SDS011;62001;53.366;6.636;2023-07-13T02:18:54;17.42;;;4.20;;
52940;SDS011;62001;53.366;6.636;2023-07-13T02:21:21;16.10;;;4.25;;
52940;SDS011;62001;53.366;6.636;2023-07-13T02:23:48;24.40;;;4.85;;
52940;SDS011;62001;53.366;6.636;2023-07-13T02:26:14;13.35;;;3.83;;
52940;SDS011;62001;53.366;6.636;2023-07-13T02:28:41;13.75;;;4.38;;
52940;SDS011;62001;53.366;6.636;2023-07-13T02:31:07;16.17;;;4.20;;
52940;SDS011;62001;53.366;6.636;2023-07-13T02:33:35;13.10;;;3.70;;
52940;SDS011;62001;53.366;6.636;2023-07-13T02:36:01;9.75;;;3.58;;
52940;SDS011;62001;53.366;6.636;2023-07-13T02:38:29;11.02;;;3.53;;
52940;SDS011;62001;53.366;6.636;2023-07-13T02:40:54;12.57;;;3.67;;
52940;SDS011;62001;53.366;6.636;2023-07-13T02:43:21;8.98;;;3.20;;
52940;SDS011;62001;53.366;6.636;2023-07-13T02:45:47;8.18;;;2.83;;
52940;SDS011;62001;53.366;6.636;2023-07-13T02:48:13;9.40;;;2.88;;
52940;SDS011;62001;53.366;6.636;2023-07-13T02:50:40;7.88;;;2.28;;
52940;SDS011;62001;53.366;6.636;2023-07-13T02:53:06;10.65;;;2.55;;
52940;SDS011;62001;53.366;6.636;2023-07-13T02:55:31;8.95;;;2.42;;
52940;SDS011;62001;53.366;6.636;2023-07-13T02:57:57;8.10;;;2.25;;
52940;SDS011;62001;53.366;6.636;2023-07-13T03:00:23;10.40;;;2.30;;
52940;SDS011;62001;53.366;6.636;2023-07-13T03:02:49;6.15;;;2.10;;
52940;SDS011;62001;53.366;6.636;2023-07-13T03:05:17;4.80;;;1.83;;
52940;SDS011;62001;53.366;6.636;2023-07-13T03:07:43;7.18;;;1.85;;
52940;SDS011;62001;53.366;6.636;2023-07-13T03:10:09;5.20;;;1.58;;
52940;SDS011;62001;53.366;6.636;2023-07-13T03:12:35;7.07;;;2.00;;
52940;SDS011;62001;53.366;6.636;2023-07-13T03:15:01;5.63;;;2.00;;
52940;SDS011;62001;53.366;6.636;2023-07-13T03:17:27;4.80;;;1.80;;
52940;SDS011;62001;53.366;6.636;2023-07-13T03:19:53;9.60;;;2.00;;
52940;SDS011;62001;53.366;6.636;2023-07-13T03:22:19;7.82;;;1.90;;
52940;SDS011;62001;53.366;6.636;2023-07-13T03:24:45;7.57;;;2.13;;
52940;SDS011;62001;53.366;6.636;2023-07-13T03:27:12;6.97;;;1.90;;
52940;SDS011;62001;53.366;6.636;2023-07-13T03:29:38;6.05;;;1.90;;
52940;SDS011;62001;53.366;6.636;2023-07-13T03:32:04;5.43;;;1.92;;
52940;SDS011;62001;53.366;6.636;2023-07-13T03:34:31;6.55;;;2.30;;
52940;SDS011;62001;53.366;6.636;2023-07-13T03:36:57;7.72;;;1.92;;
52940;SDS011;62001;53.366;6.636;2023-07-13T03:39:23;7.80;;;2.33;;
52940;SDS011;62001;53.366;6.636;2023-07-13T03:41:49;8.02;;;2.15;;
52940;SDS011;62001;53.366;6.636;2023-07-13T03:44:16;5.90;;;2.20;;
52940;SDS011;62001;53.366;6.636;2023-07-13T03:46:43;5.03;;;2.30;;
52940;SDS011;62001;53.366;6.636;2023-07-13T03:49:09;8.55;;;2.42;;
52940;SDS011;62001;53.366;6.636;2023-07-13T03:51:35;11.18;;;2.67;;
52940;SDS011;62001;53.366;6.636;2023-07-13T03:54:02;7.88;;;2.95;;
52940;SDS011;62001;53.366;6.636;2023-07-13T03:56:28;11.35;;;2.97;;
52940;SDS011;62001;53.366;6.636;2023-07-13T03:58:55;10.23;;;3.25;;
52940;SDS011;62001;53.366;6.636;2023-07-13T04:01:22;15.45;;;3.67;;
52940;SDS011;62001;53.366;6.636;2023-07-13T04:03:50;14.32;;;4.15;;
52940;SDS011;62001;53.366;6.636;2023-07-13T04:06:21;12.70;;;3.60;;
52940;SDS011;62001;53.366;6.636;2023-07-13T04:08:50;13.93;;;3.65;;
52940;SDS011;62001;53.366;6.636;2023-07-13T04:11:18;13.38;;;3.60;;
52940;SDS011;62001;53.366;6.636;2023-07-13T04:13:45;10.25;;;3.42;;
52940;SDS011;62001;53.366;6.636;2023-07-13T04:16:12;12.73;;;4.75;;
52940;SDS011;62001;53.366;6.636;2023-07-13T04:18:39;16.13;;;4.13;;
52940;SDS011;62001;53.366;6.636;2023-07-13T04:21:06;23.15;;;4.50;;
52940;SDS011;62001;53.366;6.636;2023-07-13T04:23:34;15.48;;;4.68;;
52940;SDS011;62001;53.366;6.636;2023-07-13T04:26:01;15.50;;;4.55;;
52940;SDS011;62001;53.366;6.636;2023-07-13T04:28:26;13.85;;;4.05;;
52940;SDS011;62001;53.366;6.636;2023-07-13T04:30:53;19.00;;;5.00;;
52940;SDS011;62001;53.366;6.636;2023-07-13T04:33:19;13.98;;;5.03;;
52940;SDS011;62001;53.366;6.636;2023-07-13T04:35:52;14.25;;;4.68;;
52940;SDS011;62001;53.366;6.636;2023-07-13T04:38:25;13.55;;;4.10;;
52940;SDS011;62001;53.366;6.636;2023-07-13T04:40:54;14.70;;;4.40;;
52940;SDS011;62001;53.366;6.636;2023-07-13T04:43:24;13.52;;;4.70;;
52940;SDS011;62001;53.366;6.636;2023-07-13T04:45:51;16.92;;;4.75;;
52940;SDS011;62001;53.366;6.636;2023-07-13T04:48:17;18.52;;;4.85;;
52940;SDS011;62001;53.366;6.636;2023-07-13T04:50:45;17.20;;;4.72;;
52940;SDS011;62001;53.366;6.636;2023-07-13T04:53:11;22.27;;;5.03;;
52940;SDS011;62001;53.366;6.636;2023-07-13T04:55:37;20.23;;;4.75;;
52940;SDS011;62001;53.366;6.636;2023-07-13T04:58:03;17.67;;;5.30;;
52940;SDS011;62001;53.366;6.636;2023-07-13T05:00:30;16.90;;;4.85;;
52940;SDS011;62001;53.366;6.636;2023-07-13T05:02:57;10.93;;;4.32;;
52940;SDS011;62001;53.366;6.636;2023-07-13T05:05:24;15.88;;;4.57;;
52940;SDS011;62001;53.366;6.636;2023-07-13T05:07:51;13.52;;;4.30;;
52940;SDS011;62001;53.366;6.636;2023-07-13T05:10:18;16.50;;;4.72;;
52940;SDS011;62001;53.366;6.636;2023-07-13T05:12:44;14.05;;;4.75;;
52940;SDS011;62001;53.366;6.636;2023-07-13T05:15:10;12.75;;;4.60;;
52940;SDS011;62001;53.366;6.636;2023-07-13T05:17:36;15.82;;;4.28;;
52940;SDS011;62001;53.366;6.636;2023-07-13T05:20:04;17.63;;;4.15;;
52940;SDS011;62001;53.366;6.636;2023-07-13T05:22:31;13.32;;;4.10;;
52940;SDS011;62001;53.366;6.636;2023-07-13T05:24:57;15.85;;;4.28;;
52940;SDS011;62001;53.366;6.636;2023-07-13T05:27:23;13.20;;;4.00;;
52940;SDS011;62001;53.366;6.636;2023-07-13T05:29:49;11.38;;;3.58;;
52940;SDS011;62001;53.366;6.636;2023-07-13T05:32:15;17.58;;;3.80;;
52940;SDS011;62001;53.366;6.636;2023-07-13T05:34:43;14.18;;;3.60;;
52940;SDS011;62001;53.366;6.636;2023-07-13T05:37:08;11.13;;;3.83;;
52940;SDS011;62001;53.366;6.636;2023-07-13T05:39:35;10.77;;;3.25;;
52940;SDS011;62001;53.366;6.636;2023-07-13T05:42:01;14.32;;;3.38;;
52940;SDS011;62001;53.366;6.636;2023-07-13T05:44:27;11.10;;;3.03;;
52940;SDS011;62001;53.366;6.636;2023-07-13T05:46:53;11.63;;;3.17;;
52940;SDS011;62001;53.366;6.636;2023-07-13T05:49:21;7.22;;;2.60;;
52940;SDS011;62001;53.366;6.636;2023-07-13T05:51:48;11.02;;;2.88;;
52940;SDS011;62001;53.366;6.636;2023-07-13T05:54:13;13.07;;;3.45;;
52940;SDS011;62001;53.366;6.636;2023-07-13T05:56:40;11.20;;;3.10;;
52940;SDS011;62001;53.366;6.636;2023-07-13T05:59:06;8.30;;;2.75;;
52940;SDS011;62001;53.366;6.636;2023-07-13T06:01:32;12.23;;;2.90;;
52940;SDS011;62001;53.366;6.636;2023-07-13T06:03:58;9.80;;;2.53;;
52940;SDS011;62001;53.366;6.636;2023-07-13T06:06:24;8.18;;;2.60;;
52940;SDS011;62001;53.366;6.636;2023-07-13T06:08:50;9.23;;;2.55;;
52940;SDS011;62001;53.366;6.636;2023-07-13T06:11:17;12.48;;;2.80;;
52940;SDS011;62001;53.366;6.636;2023-07-13T06:13:45;9.80;;;3.08;;
52940;SDS011;62001;53.366;6.636;2023-07-13T06:16:11;9.50;;;2.78;;
52940;SDS011;62001;53.366;6.636;2023-07-13T06:18:38;12.30;;;2.95;;
52940;SDS011;62001;53.366;6.636;2023-07-13T06:21:06;7.63;;;2.65;;
52940;SDS011;62001;53.366;6.636;2023-07-13T06:23:37;8.18;;;2.33;;
52940;SDS011;62001;53.366;6.636;2023-07-13T06:26:04;7.82;;;2.45;;
52940;SDS011;62001;53.366;6.636;2023-07-13T06:28:30;6.60;;;2.20;;
52940;SDS011;62001;53.366;6.636;2023-07-13T06:30:57;7.50;;;2.70;;
52940;SDS011;62001;53.366;6.636;2023-07-13T06:33:24;13.07;;;2.90;;
52940;SDS011;62001;53.366;6.636;2023-07-13T06:35:50;8.85;;;2.33;;
52940;SDS011;62001;53.366;6.636;2023-07-13T06:38:16;9.60;;;2.38;;
52940;SDS011;62001;53.366;6.636;2023-07-13T06:40:42;6.18;;;2.33;;
52940;SDS011;62001;53.366;6.636;2023-07-13T06:43:08;9.13;;;2.70;;
52940;SDS011;62001;53.366;6.636;2023-07-13T06:45:41;5.93;;;2.20;;
52940;SDS011;62001;53.366;6.636;2023-07-13T06:48:11;7.30;;;2.20;;
52940;SDS011;62001;53.366;6.636;2023-07-13T06:50:37;9.93;;;2.30;;
52940;SDS011;62001;53.366;6.636;2023-07-13T06:53:02;8.68;;;2.67;;
52940;SDS011;62001;53.366;6.636;2023-07-13T06:55:28;8.77;;;2.63;;
52940;SDS011;62001;53.366;6.636;2023-07-13T06:57:54;6.60;;;2.25;;
52940;SDS011;62001;53.366;6.636;2023-07-13T07:00:20;8.32;;;2.35;;
52940;SDS011;62001;53.366;6.636;2023-07-13T07:02:46;7.63;;;2.38;;
52940;SDS011;62001;53.366;6.636;2023-07-13T07:05:12;7.18;;;2.20;;
52940;SDS011;62001;53.366;6.636;2023-07-13T07:07:38;10.25;;;2.40;;
52940;SDS011;62001;53.366;6.636;2023-07-13T07:10:04;5.65;;;2.22;;
52940;SDS011;62001;53.366;6.636;2023-07-13T07:12:31;9.68;;;2.30;;
52940;SDS011;62001;53.366;6.636;2023-07-13T07:14:56;6.82;;;2.17;;
52940;SDS011;62001;53.366;6.636;2023-07-13T07:17:22;5.57;;;2.35;;
52940;SDS011;62001;53.366;6.636;2023-07-13T07:19:48;6.00;;;2.13;;
52940;SDS011;62001;53.366;6.636;2023-07-13T07:22:14;8.82;;;1.90;;
52940;SDS011;62001;53.366;6.636;2023-07-13T07:24:40;5.72;;;1.63;;
52940;SDS011;62001;53.366;6.636;2023-07-13T07:27:06;7.88;;;1.95;;
52940;SDS011;62001;53.366;6.636;2023-07-13T07:29:32;7.53;;;2.15;;
52940;SDS011;62001;53.366;6.636;2023-07-13T07:31:59;5.50;;;2.10;;
52940;SDS011;62001;53.366;6.636;2023-07-13T07:34:25;6.53;;;2.00;;
52940;SDS011;62001;53.366;6.636;2023-07-13T07:36:51;3.70;;;1.60;;
52940;SDS011;62001;53.366;6.636;2023-07-13T07:39:18;4.95;;;1.48;;
52940;SDS011;62001;53.366;6.636;2023-07-13T07:41:44;5.57;;;1.45;;
52940;SDS011;62001;53.366;6.636;2023-07-13T07:44:10;4.53;;;1.95;;
52940;SDS011;62001;53.366;6.636;2023-07-13T07:46:36;7.32;;;1.52;;
52940;SDS011;62001;53.366;6.636;2023-07-13T07:49:02;6.57;;;1.80;;
52940;SDS011;62001;53.366;6.636;2023-07-13T07:51:28;7.40;;;1.60;;
52940;SDS011;62001;53.366;6.636;2023-07-13T07:53:54;8.35;;;1.63;;
52940;SDS011;62001;53.366;6.636;2023-07-13T07:56:20;4.70;;;1.50;;
52940;SDS011;62001;53.366;6.636;2023-07-13T07:58:45;4.72;;;1.45;;
52940;SDS011;62001;53.366;6.636;2023-07-13T08:01:11;5.28;;;1.63;;
52940;SDS011;62001;53.366;6.636;2023-07-13T08:03:37;6.88;;;1.38;;
52940;SDS011;62001;53.366;6.636;2023-07-13T08:06:03;3.88;;;1.52;;
52940;SDS011;62001;53.366;6.636;2023-07-13T08:08:29;8.15;;;1.42;;
52940;SDS011;62001;53.366;6.636;2023-07-13T08:10:55;3.50;;;1.65;;
52940;SDS011;62001;53.366;6.636;2023-07-13T08:13:21;5.28;;;1.40;;
52940;SDS011;62001;53.366;6.636;2023-07-13T08:15:47;5.00;;;1.70;;
52940;SDS011;62001;53.366;6.636;2023-07-13T08:18:14;5.03;;;1.83;;
52940;SDS011;62001;53.366;6.636;2023-07-13T08:20:40;4.43;;;1.60;;
52940;SDS011;62001;53.366;6.636;2023-07-13T08:23:07;4.30;;;1.55;;
52940;SDS011;62001;53.366;6.636;2023-07-13T08:25:35;5.00;;;1.48;;
52940;SDS011;62001;53.366;6.636;2023-07-13T08:28:02;5.60;;;1.55;;
52940;SDS011;62001;53.366;6.636;2023-07-13T08:30:28;4.57;;;1.52;;
52940;SDS011;62001;53.366;6.636;2023-07-13T08:32:54;4.18;;;1.63;;
52940;SDS011;62001;53.366;6.636;2023-07-13T08:35:20;4.88;;;1.67;;
52940;SDS011;62001;53.366;6.636;2023-07-13T08:37:46;4.05;;;1.58;;
52940;SDS011;62001;53.366;6.636;2023-07-13T08:40:12;9.98;;;2.13;;
52940;SDS011;62001;53.366;6.636;2023-07-13T08:42:43;5.68;;;1.92;;
52940;SDS011;62001;53.366;6.636;2023-07-13T08:45:24;7.57;;;2.22;;
52940;SDS011;62001;53.366;6.636;2023-07-13T08:47:53;6.63;;;2.10;;
52940;SDS011;62001;53.366;6.636;2023-07-13T08:50:33;7.53;;;2.38;;
52940;SDS011;62001;53.366;6.636;2023-07-13T08:53:13;6.80;;;2.45;;
52940;SDS011;62001;53.366;6.636;2023-07-13T08:55:40;6.60;;;1.90;;
52940;SDS011;62001;53.366;6.636;2023-07-13T08:58:11;4.82;;;2.10;;
52940;SDS011;62001;53.366;6.636;2023-07-13T09:03:20;5.80;;;1.83;;
52940;SDS011;62001;53.366;6.636;2023-07-13T09:05:54;8.27;;;2.10;;
52940;SDS011;62001;53.366;6.636;2023-07-13T09:11:23;5.47;;;1.90;;
52940;SDS011;62001;53.366;6.636;2023-07-13T09:16:27;5.70;;;1.93;;
52940;SDS011;62001;53.366;6.636;2023-07-13T09:18:54;6.30;;;1.80;;
52940;SDS011;62001;53.366;6.636;2023-07-13T09:21:27;6.85;;;2.00;;
52940;SDS011;62001;53.366;6.636;2023-07-13T09:23:58;4.53;;;1.92;;
52940;SDS011;62001;53.366;6.636;2023-07-13T09:26:28;5.95;;;2.50;;
52940;SDS011;62001;53.366;6.636;2023-07-13T09:28:58;6.72;;;2.40;;
52940;SDS011;62001;53.366;6.636;2023-07-13T09:31:45;6.95;;;2.17;;
52940;SDS011;62001;53.366;6.636;2023-07-13T09:34:16;4.68;;;1.88;;
52940;SDS011;62001;53.366;6.636;2023-07-13T09:36:42;4.40;;;1.85;;
52940;SDS011;62001;53.366;6.636;2023-07-13T09:39:14;4.18;;;1.70;;
52940;SDS011;62001;53.366;6.636;2023-07-13T09:41:49;4.03;;;1.75;;
52940;SDS011;62001;53.366;6.636;2023-07-13T09:44:18;5.53;;;2.25;;
52940;SDS011;62001;53.366;6.636;2023-07-13T09:46:53;4.93;;;2.10;;
52940;SDS011;62001;53.366;6.636;2023-07-13T09:49:23;8.23;;;2.40;;
52940;SDS011;62001;53.366;6.636;2023-07-13T09:52:01;4.70;;;1.98;;
52940;SDS011;62001;53.366;6.636;2023-07-13T09:54:33;9.30;;;2.40;;
52940;SDS011;62001;53.366;6.636;2023-07-13T09:57:01;7.00;;;1.70;;
52940;SDS011;62001;53.366;6.636;2023-07-13T09:59:29;5.22;;;1.55;;
52940;SDS011;62001;53.366;6.636;2023-07-13T10:01:58;4.40;;;1.52;;
52940;SDS011;62001;53.366;6.636;2023-07-13T10:04:30;5.28;;;1.63;;
52940;SDS011;62001;53.366;6.636;2023-07-13T10:07:05;3.30;;;1.60;;
52940;SDS011;62001;53.366;6.636;2023-07-13T10:09:32;3.10;;;1.35;;
52940;SDS011;62001;53.366;6.636;2023-07-13T10:11:58;3.65;;;1.20;;
52940;SDS011;62001;53.366;6.636;2023-07-13T10:14:24;4.15;;;1.13;;
52940;SDS011;62001;53.366;6.636;2023-07-13T10:16:53;2.28;;;1.17;;
52940;SDS011;62001;53.366;6.636;2023-07-13T10:19:29;5.30;;;1.20;;
52940;SDS011;62001;53.366;6.636;2023-07-13T10:22:14;2.65;;;1.20;;
52940;SDS011;62001;53.366;6.636;2023-07-13T10:27:18;4.07;;;1.23;;
52940;SDS011;62001;53.366;6.636;2023-07-13T10:29:48;2.45;;;0.90;;
52940;SDS011;62001;53.366;6.636;2023-07-13T10:32:16;5.45;;;1.17;;
52940;SDS011;62001;53.366;6.636;2023-07-13T10:34:47;5.07;;;1.30;;
52940;SDS011;62001;53.366;6.636;2023-07-13T10:37:16;3.45;;;1.17;;
52940;SDS011;62001;53.366;6.636;2023-07-13T10:39:53;5.38;;;1.20;;
52940;SDS011;62001;53.366;6.636;2023-07-13T10:42:26;7.22;;;1.20;;
52940;SDS011;62001;53.366;6.636;2023-07-13T10:44:55;4.15;;;0.90;;
52940;SDS011;62001;53.366;6.636;2023-07-13T10:47:21;5.70;;;1.25;;
52940;SDS011;62001;53.366;6.636;2023-07-13T10:49:50;4.32;;;0.95;;
52940;SDS011;62001;53.366;6.636;2023-07-13T10:58:02;2.83;;;1.08;;
52940;SDS011;62001;53.366;6.636;2023-07-13T11:00:43;3.53;;;1.17;;
52940;SDS011;62001;53.366;6.636;2023-07-13T11:03:18;2.70;;;0.90;;
52940;SDS011;62001;53.366;6.636;2023-07-13T11:08:32;4.47;;;1.33;;
52940;SDS011;62001;53.366;6.636;2023-07-13T11:11:02;4.50;;;1.30;;
52940;SDS011;62001;53.366;6.636;2023-07-13T11:13:55;2.88;;;0.98;;
52940;SDS011;62001;53.366;6.636;2023-07-13T11:21:30;4.57;;;1.50;;
52940;SDS011;62001;53.366;6.636;2023-07-13T11:31:43;3.78;;;1.23;;
52940;SDS011;62001;53.366;6.636;2023-07-13T11:34:38;4.97;;;1.40;;
52940;SDS011;62001;53.366;6.636;2023-07-13T11:37:08;4.47;;;1.30;;
52940;SDS011;62001;53.366;6.636;2023-07-13T11:39:38;4.57;;;1.60;;
52940;SDS011;62001;53.366;6.636;2023-07-13T11:42:08;4.47;;;1.58;;
52940;SDS011;62001;53.366;6.636;2023-07-13T11:44:42;3.95;;;1.50;;
52940;SDS011;62001;53.366;6.636;2023-07-13T11:47:22;5.10;;;1.80;;
52940;SDS011;62001;53.366;6.636;2023-07-13T11:49:54;6.43;;;1.65;;
52940;SDS011;62001;53.366;6.636;2023-07-13T11:52:42;5.38;;;1.92;;
52940;SDS011;62001;53.366;6.636;2023-07-13T11:55:17;6.40;;;1.73;;
52940;SDS011;62001;53.366;6.636;2023-07-13T11:58:02;4.95;;;1.70;;
52940;SDS011;62001;53.366;6.636;2023-07-13T12:00:29;5.28;;;1.73;;
52940;SDS011;62001;53.366;6.636;2023-07-13T12:02:59;7.75;;;1.85;;
52940;SDS011;62001;53.366;6.636;2023-07-13T12:05:26;6.72;;;2.05;;
52940;SDS011;62001;53.366;6.636;2023-07-13T12:07:52;6.30;;;2.05;;
52940;SDS011;62001;53.366;6.636;2023-07-13T12:10:23;4.80;;;1.50;;
52940;SDS011;62001;53.366;6.636;2023-07-13T12:12:56;6.85;;;1.65;;
52940;SDS011;62001;53.366;6.636;2023-07-13T12:15:27;4.55;;;1.67;;
52940;SDS011;62001;53.366;6.636;2023-07-13T12:17:59;5.35;;;1.73;;
52940;SDS011;62001;53.366;6.636;2023-07-13T12:20:33;7.50;;;1.85;;
52940;SDS011;62001;53.366;6.636;2023-07-13T12:23:04;5.50;;;1.60;;
52940;SDS011;62001;53.366;6.636;2023-07-13T12:25:31;4.00;;;1.65;;
52940;SDS011;62001;53.366;6.636;2023-07-13T12:27:57;10.10;;;2.00;;
52940;SDS011;62001;53.366;6.636;2023-07-13T12:32:56;5.78;;;1.90;;
52940;SDS011;62001;53.366;6.636;2023-07-13T12:35:23;9.40;;;2.38;;
52940;SDS011;62001;53.366;6.636;2023-07-13T12:37:50;3.85;;;2.15;;
52940;SDS011;62001;53.366;6.636;2023-07-13T12:40:21;6.65;;;2.33;;
52940;SDS011;62001;53.366;6.636;2023-07-13T12:42:51;5.15;;;2.15;;
52940;SDS011;62001;53.366;6.636;2023-07-13T12:45:22;5.32;;;2.25;;
52940;SDS011;62001;53.366;6.636;2023-07-13T12:47:53;5.82;;;2.10;;
52940;SDS011;62001;53.366;6.636;2023-07-13T12:50:30;6.03;;;2.20;;
52940;SDS011;62001;53.366;6.636;2023-07-13T12:53:03;5.68;;;2.55;;
52940;SDS011;62001;53.366;6.636;2023-07-13T12:55:46;10.50;;;3.50;;
52940;SDS011;62001;53.366;6.636;2023-07-13T12:58:27;7.38;;;2.60;;
52940;SDS011;62001;53.366;6.636;2023-07-13T13:00:55;6.28;;;2.40;;
52940;SDS011;62001;53.366;6.636;2023-07-13T13:03:35;5.30;;;2.30;;
52940;SDS011;62001;53.366;6.636;2023-07-13T13:08:47;8.80;;;2.63;;
52940;SDS011;62001;53.366;6.636;2023-07-13T13:11:17;4.05;;;2.03;;
52940;SDS011;62001;53.366;6.636;2023-07-13T13:13:44;8.00;;;2.30;;
52940;SDS011;62001;53.366;6.636;2023-07-13T13:18:48;4.05;;;1.80;;
52940;SDS011;62001;53.366;6.636;2023-07-13T13:21:16;9.27;;;2.13;;
52940;SDS011;62001;53.366;6.636;2023-07-13T13:23:43;8.95;;;2.40;;
52940;SDS011;62001;53.366;6.636;2023-07-13T13:26:13;8.25;;;2.78;;
52940;SDS011;62001;53.366;6.636;2023-07-13T13:28:43;11.82;;;2.67;;
52940;SDS011;62001;53.366;6.636;2023-07-13T13:31:10;8.68;;;2.50;;
52940;SDS011;62001;53.366;6.636;2023-07-13T13:33:38;12.30;;;2.63;;
52940;SDS011;62001;53.366;6.636;2023-07-13T13:36:16;10.00;;;2.60;;
52940;SDS011;62001;53.366;6.636;2023-07-13T13:38:45;7.05;;;2.55;;
52940;SDS011;62001;53.366;6.636;2023-07-13T13:41:13;9.18;;;2.75;;
52940;SDS011;62001;53.366;6.636;2023-07-13T13:43:40;8.40;;;2.60;;
52940;SDS011;62001;53.366;6.636;2023-07-13T13:46:13;13.13;;;2.58;;
52940;SDS011;62001;53.366;6.636;2023-07-13T13:48:47;11.63;;;2.88;;
52940;SDS011;62001;53.366;6.636;2023-07-13T13:53:44;10.95;;;2.90;;
52940;SDS011;62001;53.366;6.636;2023-07-13T13:56:11;9.25;;;2.78;;
52940;SDS011;62001;53.366;6.636;2023-07-13T13:58:37;10.50;;;2.90;;
52940;SDS011;62001;53.366;6.636;2023-07-13T14:01:03;10.70;;;2.90;;
52940;SDS011;62001;53.366;6.636;2023-07-13T14:03:33;9.50;;;2.75;;
52940;SDS011;62001;53.366;6.636;2023-07-13T14:05:59;6.68;;;2.60;;
52940;SDS011;62001;53.366;6.636;2023-07-13T14:08:25;7.95;;;2.55;;
52940;SDS011;62001;53.366;6.636;2023-07-13T14:10:52;7.95;;;2.30;;
52940;SDS011;62001;53.366;6.636;2023-07-13T14:13:26;10.15;;;2.50;;
52940;SDS011;62001;53.366;6.636;2023-07-13T14:15:56;8.10;;;2.40;;
52940;SDS011;62001;53.366;6.636;2023-07-13T14:18:24;6.32;;;2.17;;
52940;SDS011;62001;53.366;6.636;2023-07-13T14:20:50;9.82;;;2.40;;
52940;SDS011;62001;53.366;6.636;2023-07-13T14:23:17;7.63;;;2.50;;
52940;SDS011;62001;53.366;6.636;2023-07-13T14:25:44;6.05;;;2.33;;
52940;SDS011;62001;53.366;6.636;2023-07-13T14:28:19;9.30;;;2.25;;
52940;SDS011;62001;53.366;6.636;2023-07-13T14:30:51;7.75;;;2.13;;
52940;SDS011;62001;53.366;6.636;2023-07-13T14:33:18;7.10;;;2.10;;
52940;SDS011;62001;53.366;6.636;2023-07-13T14:35:44;7.72;;;2.85;;
52940;SDS011;62001;53.366;6.636;2023-07-13T14:38:11;9.80;;;2.65;;
52940;SDS011;62001;53.366;6.636;2023-07-13T14:40:45;10.27;;;2.72;;
52940;SDS011;62001;53.366;6.636;2023-07-13T14:43:12;8.82;;;2.15;;
52940;SDS011;62001;53.366;6.636;2023-07-13T14:45:57;8.70;;;2.30;;
52940;SDS011;62001;53.366;6.636;2023-07-13T14:48:23;7.97;;;2.38;;
52940;SDS011;62001;53.366;6.636;2023-07-13T14:50:58;8.38;;;2.55;;
52940;SDS011;62001;53.366;6.636;2023-07-13T14:53:25;5.35;;;1.75;;
52940;SDS011;62001;53.366;6.636;2023-07-13T14:55:54;9.80;;;2.35;;
52940;SDS011;62001;53.366;6.636;2023-07-13T14:58:20;7.82;;;2.53;;
52940;SDS011;62001;53.366;6.636;2023-07-13T15:00:46;5.78;;;2.22;;
52940;SDS011;62001;53.366;6.636;2023-07-13T15:03:19;7.13;;;2.15;;
52940;SDS011;62001;53.366;6.636;2023-07-13T15:05:47;8.68;;;2.25;;
52940;SDS011;62001;53.366;6.636;2023-07-13T15:08:13;4.82;;;2.20;;
52940;SDS011;62001;53.366;6.636;2023-07-13T15:10:41;9.23;;;2.22;;
52940;SDS011;62001;53.366;6.636;2023-07-13T15:13:14;5.38;;;1.80;;
52940;SDS011;62001;53.366;6.636;2023-07-13T15:15:45;5.65;;;1.98;;
52940;SDS011;62001;53.366;6.636;2023-07-13T15:18:14;5.82;;;1.63;;
52940;SDS011;62001;53.366;6.636;2023-07-13T15:20:43;4.68;;;1.88;;
52940;SDS011;62001;53.366;6.636;2023-07-13T15:23:10;6.43;;;2.13;;
52940;SDS011;62001;53.366;6.636;2023-07-13T15:25:37;6.63;;;2.10;;
52940;SDS011;62001;53.366;6.636;2023-07-13T15:28:03;4.40;;;1.85;;
52940;SDS011;62001;53.366;6.636;2023-07-13T15:30:31;5.70;;;1.58;;
52940;SDS011;62001;53.366;6.636;2023-07-13T15:33:09;5.40;;;2.40;;
52940;SDS011;62001;53.366;6.636;2023-07-13T15:35:36;5.45;;;1.80;;
52940;SDS011;62001;53.366;6.636;2023-07-13T15:38:11;7.38;;;2.00;;
52940;SDS011;62001;53.366;6.636;2023-07-13T15:40:40;5.85;;;2.10;;
52940;SDS011;62001;53.366;6.636;2023-07-13T15:43:10;5.57;;;2.17;;